Latest Weather Observations for Lord Howe Island Windy Point

IDN60801

Issued at 3:02 am EDT Tuesday 31 March 2015 (issued every 30 minutes, with the page automatically refreshed every 10 minutes)

About weather observations | Map of weather stations | Latest weather observations for NSW | Other Formats
Station Details ID: 200715 Name: LORD HOWE ISLAND WINDY POINT Lat: -31.54 Lon: 159.07 Height: 4.0 m
Data from the previous 72 hours. | See also: Recent months for locations in New South Wales
Date/Time
EDT
Temp
°C
App
Temp
°C
Dew
Point
Rel
Hum
%
Delta-T
°C
Wind Press
QNH
hPa
Press
MSL
hPa
Rain
since 9 am
mm
Dir
 
Spd
km/h
Gust
km/h
Spd
kts
Gust
kts
31/03:00am - - - - - ESE 17 24 9 13 - - -
31/02:30am - - - - - ESE 15 22 8 12 - - -
31/02:00am - - - - - ESE 15 20 8 11 - - -
31/01:30am - - - - - ESE 15 20 8 11 - - -
31/01:00am - - - - - ESE 15 24 8 13 - - -
31/12:30am - - - - - ESE 20 28 11 15 - - -
31/12:00am - - - - - ESE 22 30 12 16 - - -
 
Date/Time
EDT
Temp
°C
App
Temp
°C
Dew
Point
Rel
Hum
%
Delta-T
°C
Wind Press
QNH
hPa
Press
MSL
hPa
Rain
since 9 am
mm
Dir
 
Spd
km/h
Gust
km/h
Spd
kts
Gust
kts
30/11:30pm - - - - - ESE 22 28 12 15 - - -
30/11:00pm - - - - - ESE 22 30 12 16 - - -
30/10:30pm - - - - - E 20 28 11 15 - - -
30/10:00pm - - - - - E 20 24 11 13 - - -
30/09:30pm - - - - - ESE 26 35 14 19 - - -
30/09:00pm - - - - - ESE 20 26 11 14 - - -
30/08:30pm - - - - - ESE 17 22 9 12 - - -
30/08:00pm - - - - - E 22 30 12 16 - - -
30/07:30pm - - - - - E 22 28 12 15 - - -
30/07:00pm - - - - - E 22 30 12 16 - - -
30/06:30pm - - - - - E 20 26 11 14 - - -
30/06:00pm - - - - - E 20 26 11 14 - - -
30/05:30pm - - - - - E 20 26 11 14 - - -
30/05:00pm - - - - - E 17 24 9 13 - - -
30/04:30pm - - - - - E 17 20 9 11 - - -
30/04:00pm - - - - - ENE 17 20 9 11 - - -
30/03:30pm - - - - - E 19 24 10 13 - - -
30/03:00pm - - - - - E 19 24 10 13 - - -
30/02:30pm - - - - - E 20 26 11 14 - - -
30/02:00pm - - - - - E 20 24 11 13 - - -
30/01:30pm - - - - - E 19 24 10 13 - - -
30/01:00pm - - - - - E 20 24 11 13 - - -
30/12:30pm - - - - - E 22 26 12 14 - - -
30/12:00pm - - - - - ESE 20 28 11 15 - - -
30/11:30am - - - - - E 20 28 11 15 - - -
30/11:00am - - - - - E 20 28 11 15 - - -
30/10:30am - - - - - E 20 24 11 13 - - -
30/10:00am - - - - - E 19 22 10 12 - - -
30/09:30am - - - - - E 19 24 10 13 - - -
30/09:00am - - - - - E 20 28 11 15 - - -
30/08:30am - - - - - ESE 22 28 12 15 - - -
30/08:00am - - - - - E 19 24 10 13 - - -
30/07:30am - - - - - ESE 15 22 8 12 - - -
30/07:00am - - - - - ESE 15 20 8 11 - - -
30/06:30am - - - - - E 15 22 8 12 - - -
30/06:00am - - - - - ESE 17 24 9 13 - - -
30/05:30am - - - - - ESE 9 17 5 9 - - -
30/05:00am - - - - - E 7 13 4 7 - - -
30/04:30am - - - - - E 7 9 4 5 - - -
30/04:00am - - - - - ESE 7 11 4 6 - - -
30/03:30am - - - - - E 6 7 3 4 - - -
30/03:00am - - - - - ENE 6 7 3 4 - - -
30/02:30am - - - - - ENE 6 7 3 4 - - -
30/02:00am - - - - - ESE 4 9 2 5 - - -
30/01:30am - - - - - E 6 11 3 6 - - -
30/01:00am - - - - - E 6 9 3 5 - - -
30/12:30am - - - - - SE 9 17 5 9 - - -
30/12:00am - - - - - SSE 15 22 8 12 - - -
 
Date/Time
EDT
Temp
°C
App
Temp
°C
Dew
Point
Rel
Hum
%
Delta-T
°C
Wind Press
QNH
hPa
Press
MSL
hPa
Rain
since 9 am
mm
Dir
 
Spd
km/h
Gust
km/h
Spd
kts
Gust
kts
29/11:30pm - - - - - S 19 24 10 13 - - -
29/11:00pm - - - - - S 17 26 9 14 - - -
29/10:30pm - - - - - ESE 9 13 5 7 - - -
29/10:00pm - - - - - S 17 32 9 17 - - -
29/09:30pm - - - - - SE 9 15 5 8 - - -
29/09:00pm - - - - - SE 9 13 5 7 - - -
29/08:30pm - - - - - SSE 13 17 7 9 - - -
29/08:00pm - - - - - ESE 7 11 4 6 - - -
29/07:30pm - - - - - SSE 9 13 5 7 - - -
29/07:00pm - - - - - SSE 11 20 6 11 - - -
29/06:30pm - - - - - SSW 24 30 13 16 - - -
29/06:00pm - - - - - SSW 22 30 12 16 - - -
29/05:30pm - - - - - SSW 22 28 12 15 - - -
29/05:00pm - - - - - SSW 24 28 13 15 - - -
29/04:30pm - - - - - SSW 20 28 11 15 - - -
29/04:00pm - - - - - SSW 20 26 11 14 - - -
29/03:30pm - - - - - SSW 22 28 12 15 - - -
29/03:00pm - - - - - SW 22 30 12 16 - - -
29/02:30pm - - - - - SSW 22 26 12 14 - - -
29/02:00pm - - - - - SW 19 24 10 13 - - -
29/01:30pm - - - - - SSW 20 26 11 14 - - -
29/01:00pm - - - - - SW 20 24 11 13 - - -
29/12:30pm - - - - - SW 17 22 9 12 - - -
29/12:00pm - - - - - SSW 20 26 11 14 - - -
29/11:30am - - - - - SW 17 22 9 12 - - -
29/11:00am - - - - - SSW 15 20 8 11 - - -
29/10:30am - - - - - SW 15 19 8 10 - - -
29/10:00am - - - - - SSW 17 22 9 12 - - -
29/09:30am - - - - - SSW 19 22 10 12 - - -
29/09:00am - - - - - SSW 19 24 10 13 - - -
29/08:30am - - - - - SSW 20 24 11 13 - - -
29/08:00am - - - - - SSE 11 24 6 13 - - -
29/07:30am - - - - - SSW 13 22 7 12 - - -
29/07:00am - - - - - SE 6 11 3 6 - - -
29/06:30am - - - - - S 11 19 6 10 - - -
29/06:00am - - - - - SSW 15 20 8 11 - - -
29/05:30am - - - - - S 13 24 7 13 - - -
29/05:00am - - - - - SW 26 32 14 17 - - -
29/04:30am - - - - - SSW 19 26 10 14 - - -
29/04:00am - - - - - SW 24 32 13 17 - - -
29/03:30am - - - - - SSW 20 32 11 17 - - -
29/03:00am - - - - - SSW 20 26 11 14 - - -
29/02:30am - - - - - SSW 24 28 13 15 - - -
29/02:00am - - - - - SSW 17 28 9 15 - - -
29/01:30am - - - - - SSE 13 22 7 12 - - -
29/01:00am - - - - - SSW 19 32 10 17 - - -
29/12:30am - - - - - SSW 20 30 11 16 - - -
29/12:00am - - - - - SSW 26 33 14 18 - - -
 
Date/Time
EDT
Temp
°C
App
Temp
°C
Dew
Point
Rel
Hum
%
Delta-T
°C
Wind Press
QNH
hPa
Press
MSL
hPa
Rain
since 9 am
mm
Dir
 
Spd
km/h
Gust
km/h
Spd
kts
Gust
kts
28/11:30pm - - - - - SW 24 30 13 16 - - -
28/11:00pm - - - - - SSE 15 24 8 13 - - -
28/10:30pm - - - - - S 13 22 7 12 - - -
28/10:00pm - - - - - S 17 28 9 15 - - -
28/09:30pm - - - - - S 19 26 10 14 - - -
28/09:00pm - - - - - SSW 19 32 10 17 - - -
28/08:30pm - - - - - SSW 28 33 15 18 - - -
28/08:00pm - - - - - SSW 28 33 15 18 - - -
28/07:30pm - - - - - SSW 26 39 14 21 - - -
28/07:00pm - - - - - SW 24 30 13 16 - - -
28/06:30pm - - - - - SW 30 33 16 18 - - -
28/06:00pm - - - - - WSW 26 33 14 18 - - -
28/05:30pm - - - - - WSW 22 28 12 15 - - -
28/05:00pm - - - - - WSW 24 28 13 15 - - -
28/04:30pm - - - - - SW 22 30 12 16 - - -
28/04:00pm - - - - - SW 20 28 11 15 - - -
28/03:30pm - - - - - SW 24 30 13 16 - - -
28/03:00pm - - - - - SW 24 30 13 16 - - -
28/02:30pm - - - - - SW 22 30 12 16 - - -
28/02:00pm - - - - - SW 22 30 12 16 - - -
28/01:30pm - - - - - SSW 24 32 13 17 - - -
28/01:00pm - - - - - SSW 22 28 12 15 - - -
28/12:30pm - - - - - SSW 24 32 13 17 - - -
28/12:00pm - - - - - SSW 28 32 15 17 - - -
28/11:30am - - - - - SSW 24 32 13 17 - - -
28/11:00am - - - - - SSW 26 32 14 17 - - -
28/10:30am - - - - - SSW 28 37 15 20 - - -
28/10:00am - - - - - SSW 26 32 14 17 - - -
28/09:30am - - - - - SSW 26 32 14 17 - - -
28/09:00am - - - - - SW 28 33 15 18 - - -
28/08:30am - - - - - SW 26 30 14 16 - - -
28/08:00am - - - - - SSW 24 30 13 16 - - -
28/07:30am - - - - - SW 28 35 15 19 - - -
28/07:00am - - - - - SW 30 37 16 20 - - -
28/06:30am - - - - - SW 26 32 14 17 - - -
28/06:00am - - - - - SW 30 39 16 21 - - -
28/05:30am - - - - - SW 30 39 16 21 - - -
28/05:00am - - - - - SW 26 33 14 18 - - -
28/04:30am - - - - - SW 28 35 15 19 - - -
28/04:00am - - - - - SW 28 35 15 19 - - -
28/03:30am - - - - - SW 28 35 15 19 - - -

Other Formats:

Comma delimited format used in spreadsheet applications
http://www.bom.gov.au/fwo/IDN60801/IDN60801.95995.axf

JavaScript Object Notation format (JSON) in row-major order
http://www.bom.gov.au/fwo/IDN60801/IDN60801.95995.json